createdAt,value
2016-08-20T10:41:11.726Z,1264
2016-08-20T10:41:59.949Z,1272
2016-08-20T10:42:59.255Z,1264
2016-08-20T10:43:59.282Z,1328
2016-08-20T10:44:59.325Z,1340
2016-08-20T10:46:00.070Z,1356
2016-08-20T10:46:59.566Z,1388
2016-08-20T10:47:59.376Z,1348
2016-08-20T10:48:59.518Z,1352
2016-08-20T10:49:59.551Z,1384
2016-08-20T10:51:00.257Z,1428
2016-08-20T10:51:59.599Z,1464
2016-08-20T10:53:00.329Z,1520
2016-08-20T10:53:59.750Z,1520
2016-08-20T10:54:59.763Z,1468
2016-08-20T10:56:00.518Z,1596
2016-08-20T10:56:59.820Z,1672
2016-08-20T10:57:59.822Z,1696
2016-08-20T10:58:59.834Z,1732
2016-08-20T10:59:59.842Z,1768
2016-08-20T11:00:59.845Z,1812
2016-08-20T11:01:59.857Z,1832
2016-08-20T11:02:59.897Z,1892
2016-08-20T11:03:59.907Z,1896
2016-08-20T11:04:59.990Z,2008
2016-08-20T11:05:59.952Z,2040
2016-08-20T11:07:00.659Z,2072
2016-08-20T11:08:00.156Z,2068
2016-08-20T11:08:59.965Z,2128
2016-08-20T11:10:00.117Z,2124
2016-08-20T11:11:00.028Z,2080
2016-08-20T11:12:00.056Z,2064
2016-08-20T11:13:00.090Z,2128
2016-08-20T11:14:00.120Z,1768
2016-08-20T11:15:00.147Z,1928
2016-08-20T11:16:00.190Z,1728
2016-08-20T11:17:00.206Z,1816
2016-08-20T11:18:00.240Z,2036
2016-08-20T11:19:00.273Z,1924
2016-08-20T11:20:00.306Z,1856
2016-08-20T11:21:00.333Z,1976
2016-08-20T11:22:01.068Z,1972
2016-08-20T11:23:00.403Z,1868
2016-08-20T11:24:00.431Z,1992
2016-08-20T11:25:00.443Z,1920
2016-08-20T11:26:00.494Z,1948
2016-08-20T11:27:00.643Z,1908
2016-08-20T11:28:01.252Z,1864
2016-08-20T11:29:00.575Z,1992
2016-08-20T11:30:00.616Z,1916
2016-08-20T11:31:00.638Z,1880
2016-08-20T11:32:00.668Z,1912
2016-08-20T11:33:00.700Z,2024
2016-08-20T11:34:00.731Z,2132
2016-08-20T11:35:00.756Z,2584
2016-08-20T11:36:01.499Z,2924
2016-08-20T11:37:00.832Z,2612
2016-08-20T11:38:00.860Z,2856
2016-08-20T11:39:00.892Z,3624
2016-08-20T11:40:00.923Z,3484
2016-08-20T11:41:00.951Z,3256
2016-08-20T11:42:01.032Z,3116
2016-08-20T11:43:01.018Z,3400
2016-08-20T11:44:01.043Z,3516
2016-08-20T11:45:01.083Z,3956
2016-08-20T11:46:01.822Z,4032
2016-08-20T11:47:01.843Z,3776
2016-08-20T11:48:01.880Z,3648
2016-08-20T11:49:01.203Z,3536
2016-08-20T11:50:01.286Z,3000
2016-08-20T11:51:01.266Z,2796
2016-08-20T11:52:01.300Z,2596
2016-08-20T11:53:01.329Z,2576
2016-08-20T11:54:01.368Z,2508
2016-08-20T11:55:01.401Z,2596
2016-08-20T11:56:01.436Z,2720
2016-08-20T11:57:01.459Z,2628
2016-08-20T11:58:02.202Z,2612
2016-08-20T11:59:01.530Z,2448
2016-08-20T12:00:01.558Z,2368
2016-08-20T12:01:01.587Z,2228
2016-08-20T12:02:01.626Z,2124
2016-08-20T12:03:01.655Z,2044
2016-08-20T12:04:01.691Z,1756
2016-08-20T12:05:01.726Z,1740
2016-08-20T12:06:01.758Z,1760
2016-08-20T12:07:01.791Z,2020
2016-08-20T12:08:01.835Z,2724
2016-08-20T12:09:02.557Z,3536
2016-08-20T12:10:01.942Z,3300
2016-08-20T12:11:01.921Z,3244
2016-08-20T12:12:01.954Z,3172
2016-08-20T12:13:01.985Z,3280
2016-08-20T12:14:02.016Z,3316
2016-08-20T12:15:02.057Z,3080
2016-08-20T12:16:02.090Z,3188
2016-08-20T12:17:02.116Z,3180
2016-08-20T12:18:02.155Z,3220
2016-08-20T12:19:02.181Z,3324
2016-08-20T12:20:02.220Z,3420
2016-08-20T12:21:02.251Z,3376
2016-08-20T12:22:02.285Z,3420
2016-08-20T12:23:02.323Z,3392
2016-08-20T12:24:02.356Z,3424
2016-08-20T12:25:02.388Z,3464
2016-08-20T12:26:02.418Z,3360
2016-08-20T12:27:02.454Z,3324
2016-08-20T12:28:03.919Z,3212
2016-08-20T12:29:02.518Z,2972
2016-08-20T12:30:02.570Z,2728
2016-08-20T12:31:02.587Z,2736
2016-08-20T12:32:02.623Z,3484
2016-08-20T12:33:02.652Z,3680
2016-08-20T12:34:02.683Z,3828
2016-08-20T12:35:02.728Z,3912
2016-08-20T12:36:02.763Z,3828
2016-08-20T12:37:02.792Z,3668
2016-08-20T12:38:02.831Z,3596
2016-08-20T12:39:03.577Z,3492
2016-08-20T12:40:02.889Z,3492
2016-08-20T12:41:02.920Z,3488
2016-08-20T12:42:03.659Z,3424
2016-08-20T12:43:02.993Z,3200
2016-08-20T12:44:03.152Z,3004
2016-08-20T12:45:03.055Z,2692
2016-08-20T12:46:03.206Z,2376
2016-08-20T12:47:03.227Z,2668
2016-08-20T12:48:03.237Z,2728
2016-08-20T12:49:03.900Z,2668
2016-08-20T12:50:03.255Z,3008
2016-08-20T12:51:03.264Z,3192
2016-08-20T12:52:03.398Z,3172
2016-08-20T12:53:03.450Z,3116
2016-08-20T12:54:03.481Z,3060
2016-08-20T12:55:03.391Z,3092
2016-08-20T12:56:03.519Z,3136
2016-08-20T12:57:03.526Z,3300
2016-08-20T12:58:03.536Z,3276
2016-08-20T12:59:03.545Z,3500
2016-08-20T13:00:04.285Z,3484
2016-08-20T13:01:03.662Z,3312
2016-08-20T13:02:03.634Z,3212
2016-08-20T13:03:03.666Z,3300
2016-08-20T13:04:03.757Z,3148
2016-08-20T13:05:04.433Z,2956
2016-08-20T13:06:03.762Z,2840
2016-08-20T13:07:03.797Z,2948
2016-08-20T13:08:03.839Z,2988
2016-08-20T13:09:03.872Z,3004
2016-08-20T13:10:03.906Z,3024
2016-08-20T13:11:04.637Z,3052
2016-08-20T13:12:03.973Z,3000
2016-08-20T13:13:04.004Z,2716
2016-08-20T13:14:04.046Z,2292
2016-08-20T13:15:04.779Z,2284
2016-08-20T13:16:04.174Z,2680
2016-08-20T13:17:04.183Z,2240
2016-08-20T13:18:04.179Z,1784
2016-08-20T13:19:04.917Z,2152
2016-08-20T13:20:04.252Z,2656
2016-08-20T13:21:04.273Z,2316
2016-08-20T13:22:05.023Z,1576
2016-08-20T13:23:04.352Z,1292
2016-08-20T13:24:05.145Z,1812
2016-08-20T13:25:04.426Z,2036
2016-08-20T13:26:04.548Z,1940
2016-08-20T13:27:04.598Z,1844
2016-08-20T13:28:04.630Z,1780
2016-08-20T13:29:05.265Z,2368
2016-08-20T13:30:04.600Z,3048
2016-08-20T13:31:04.626Z,2812
2016-08-20T13:32:05.361Z,2880
2016-08-20T13:33:04.687Z,2984
2016-08-20T13:34:04.815Z,3040
2016-08-20T13:35:04.780Z,3028
2016-08-20T13:36:04.808Z,2988
2016-08-20T13:37:04.833Z,2940
2016-08-20T13:38:04.872Z,2904
2016-08-20T13:39:04.894Z,2920
2016-08-20T13:40:04.940Z,2904
2016-08-20T13:41:05.014Z,2872
2016-08-20T13:42:04.994Z,2848
2016-08-20T13:43:05.029Z,2788
2016-08-20T13:44:05.095Z,2728
2016-08-20T13:45:05.104Z,2664
2016-08-20T13:46:05.166Z,2632
2016-08-20T13:47:05.181Z,2624
2016-08-20T13:48:05.905Z,2620
2016-08-20T13:49:05.943Z,2624
2016-08-20T13:50:05.282Z,2620
2016-08-20T13:51:05.310Z,2608
2016-08-20T13:52:05.355Z,2576
2016-08-20T13:53:05.393Z,2528
2016-08-20T13:54:05.500Z,2448
2016-08-20T13:55:05.550Z,2352
2016-08-20T13:56:05.549Z,2240
2016-08-20T13:57:05.563Z,2156
2016-08-20T13:58:06.268Z,2096
2016-08-20T13:59:05.603Z,2048
2016-08-20T14:00:05.619Z,2004
2016-08-20T14:01:05.648Z,1984
2016-08-20T14:02:05.793Z,1960
2016-08-20T14:03:05.831Z,1948
2016-08-20T14:04:05.865Z,1916
2016-08-20T14:05:05.817Z,1864
2016-08-20T14:06:05.818Z,1796
2016-08-20T14:07:05.852Z,1760
2016-08-20T14:08:05.890Z,1752
2016-08-20T14:09:05.923Z,1768
2016-08-20T14:10:06.009Z,1784
2016-08-20T14:11:05.998Z,1772
2016-08-20T14:12:06.054Z,1728
2016-08-20T14:13:06.767Z,1652
2016-08-20T14:14:06.798Z,1520
2016-08-20T14:15:06.133Z,1360
2016-08-20T14:16:06.156Z,1228
2016-08-20T14:17:06.197Z,1368
2016-08-20T14:18:06.229Z,1644
2016-08-20T14:19:06.270Z,1804
2016-08-20T14:20:06.302Z,1920
2016-08-20T14:21:06.333Z,1940
2016-08-20T14:22:06.484Z,1940
2016-08-20T14:23:06.402Z,1880
2016-08-20T14:24:06.654Z,1776
2016-08-20T14:25:06.589Z,1636
2016-08-20T14:26:06.719Z,1444
2016-08-20T14:27:06.677Z,1264
2016-08-20T14:28:06.730Z,1128
2016-08-20T14:29:06.826Z,984
2016-08-20T14:30:06.744Z,872
2016-08-20T14:31:07.449Z,852
2016-08-20T14:32:07.651Z,952
2016-08-20T14:33:06.831Z,1028
2016-08-20T14:34:06.854Z,1024
2016-08-20T14:35:06.937Z,1004
2016-08-20T14:36:06.841Z,828
2016-08-20T14:37:06.996Z,704
2016-08-20T14:38:06.923Z,688
2016-08-20T14:39:07.058Z,844
2016-08-20T14:40:06.998Z,856
2016-08-20T14:41:07.108Z,776
2016-08-20T14:42:07.764Z,708
2016-08-20T14:43:07.791Z,680
2016-08-20T14:44:07.126Z,688
2016-08-20T14:45:07.154Z,660
2016-08-20T14:46:07.252Z,576
2016-08-20T14:47:07.220Z,540
2016-08-20T14:48:07.249Z,432
2016-08-20T14:49:07.291Z,364
2016-08-20T14:50:08.029Z,344
2016-08-20T14:51:07.502Z,308
2016-08-20T14:52:07.386Z,352
2016-08-20T14:53:07.513Z,336
2016-08-20T14:54:07.462Z,288
2016-08-20T14:55:07.493Z,216
2016-08-20T14:56:07.598Z,168
2016-08-20T14:57:07.579Z,148
2016-08-20T14:58:07.664Z,144
2016-08-20T14:59:07.699Z,144
2016-08-20T15:00:07.675Z,140
2016-08-20T15:01:07.690Z,152
2016-08-20T15:02:07.837Z,152
2016-08-20T15:03:07.747Z,200
2016-08-20T15:04:07.786Z,340
2016-08-20T15:05:07.817Z,512
2016-08-20T15:06:07.856Z,528
2016-08-20T15:07:07.888Z,488
2016-08-20T15:08:07.928Z,464
2016-08-20T15:09:07.954Z,436
2016-08-20T15:10:07.991Z,348
2016-08-20T15:11:08.020Z,300
2016-08-20T15:12:08.061Z,280
2016-08-20T15:13:08.097Z,216
2016-08-20T15:14:08.122Z,228
2016-08-20T15:15:08.155Z,248
2016-08-20T15:16:08.898Z,236
2016-08-20T15:17:08.224Z,212
2016-08-20T15:18:08.261Z,180
2016-08-20T15:19:08.286Z,216
2016-08-20T15:20:08.327Z,212
2016-08-20T15:21:08.353Z,228
2016-08-20T15:22:08.386Z,280
2016-08-20T15:23:08.421Z,288
2016-08-20T15:24:08.456Z,260
2016-08-20T15:25:08.503Z,244
2016-08-20T15:26:08.526Z,236
2016-08-20T15:27:08.560Z,216
2016-08-20T15:28:08.776Z,208
2016-08-20T15:29:09.320Z,228
2016-08-20T15:30:08.660Z,252
2016-08-20T15:31:08.684Z,272
2016-08-20T15:32:08.713Z,272
2016-08-20T15:33:08.750Z,300
2016-08-20T15:34:08.784Z,420
2016-08-20T15:35:08.822Z,604
2016-08-20T15:36:08.847Z,628
2016-08-20T15:37:08.884Z,628
2016-08-20T15:38:08.937Z,636
2016-08-20T15:39:08.941Z,580
2016-08-20T15:40:08.974Z,428
2016-08-20T15:41:09.723Z,372
2016-08-20T15:42:09.050Z,424
2016-08-20T15:43:09.780Z,508
2016-08-20T15:44:09.119Z,508
2016-08-20T15:45:09.145Z,456
2016-08-20T15:46:09.176Z,412
2016-08-20T15:47:09.201Z,352
2016-08-20T15:48:09.237Z,288
2016-08-20T15:49:09.267Z,236
2016-08-20T15:50:09.307Z,220
2016-08-20T15:51:09.340Z,216
2016-08-20T15:52:10.386Z,208
2016-08-20T15:53:09.404Z,232
2016-08-20T15:54:09.433Z,272
2016-08-20T15:55:09.468Z,324
2016-08-20T15:56:09.495Z,352
2016-08-20T15:57:10.250Z,372
2016-08-20T15:58:09.552Z,356
2016-08-20T15:59:09.595Z,336
2016-08-20T16:00:09.622Z,316
2016-08-20T16:01:10.610Z,288
2016-08-20T16:02:09.689Z,256
2016-08-20T16:03:10.562Z,208
2016-08-20T16:04:09.758Z,180
2016-08-20T16:05:10.493Z,168
2016-08-20T16:06:09.816Z,164
2016-08-20T16:07:09.856Z,160
2016-08-20T16:08:09.905Z,156
2016-08-20T16:09:09.913Z,148
2016-08-20T16:10:09.943Z,152
2016-08-20T16:11:09.979Z,164
2016-08-20T16:12:10.006Z,164
2016-08-20T16:13:10.161Z,156
2016-08-20T16:14:10.168Z,148
2016-08-20T16:15:10.197Z,136
2016-08-20T16:16:10.230Z,132
2016-08-20T16:17:10.406Z,128
2016-08-20T16:18:10.323Z,120
2016-08-20T16:19:10.332Z,120
2016-08-20T16:20:10.465Z,140
2016-08-20T16:21:10.476Z,184
2016-08-20T16:22:10.487Z,224
2016-08-20T16:23:10.504Z,196
2016-08-20T16:24:10.505Z,172
2016-08-20T16:25:10.501Z,184
2016-08-20T16:26:10.555Z,220
2016-08-20T16:27:10.559Z,240
2016-08-20T16:28:10.593Z,220
2016-08-20T16:29:10.604Z,200
2016-08-20T16:30:10.602Z,192
2016-08-20T16:31:10.606Z,188
2016-08-20T16:32:10.689Z,184
2016-08-20T16:33:10.682Z,204
2016-08-20T16:34:10.702Z,232
2016-08-20T16:35:10.736Z,232
2016-08-20T16:36:10.769Z,204
2016-08-20T16:37:10.848Z,184
2016-08-20T16:38:10.827Z,164
2016-08-20T16:39:10.858Z,168
2016-08-20T16:40:10.947Z,164
2016-08-20T16:41:10.934Z,152
2016-08-20T16:42:10.952Z,148
2016-08-20T16:43:10.977Z,152
2016-08-20T16:44:11.021Z,152
2016-08-20T16:45:11.048Z,144
2016-08-20T16:46:11.078Z,144
2016-08-20T16:47:11.106Z,116
2016-08-20T16:48:11.133Z,108
2016-08-20T16:49:11.168Z,116
2016-08-20T16:50:11.197Z,112
2016-08-20T16:51:11.242Z,108
2016-08-20T16:52:11.258Z,108
2016-08-20T16:53:11.282Z,88
2016-08-20T16:54:11.315Z,84
2016-08-20T16:55:11.356Z,108
2016-08-20T16:56:11.388Z,96
2016-08-20T16:57:11.410Z,92
2016-08-20T16:58:11.440Z,116
2016-08-20T16:59:11.470Z,128
2016-08-20T17:00:11.502Z,136
2016-08-20T17:01:11.538Z,144
2016-08-20T17:02:12.276Z,144
2016-08-20T17:03:12.298Z,144
2016-08-20T17:04:11.628Z,156
2016-08-20T17:05:11.653Z,144
2016-08-20T17:06:11.706Z,120
2016-08-20T17:07:11.717Z,120
2016-08-20T17:08:11.758Z,136
2016-08-20T17:09:11.781Z,132
2016-08-20T17:10:11.818Z,124
2016-08-20T17:11:11.836Z,116
2016-08-20T17:12:11.869Z,116
2016-08-20T17:13:11.897Z,96
2016-08-20T17:14:11.939Z,84
2016-08-20T17:15:11.960Z,76
2016-08-20T17:16:12.011Z,64
2016-08-20T17:17:12.728Z,56
2016-08-20T17:18:12.056Z,64
2016-08-20T17:19:12.789Z,64
2016-08-20T17:20:12.233Z,64
2016-08-20T17:21:12.956Z,64
2016-08-20T17:22:12.390Z,60
2016-08-20T17:23:12.411Z,56
2016-08-20T17:24:12.400Z,48
2016-08-20T17:25:12.414Z,48
2016-08-20T17:26:12.417Z,52
2016-08-20T17:27:12.430Z,52
2016-08-20T17:28:12.448Z,44
2016-08-20T17:29:12.575Z,44
2016-08-20T17:30:12.584Z,44
2016-08-20T17:31:13.302Z,40
2016-08-20T17:32:12.606Z,40
2016-08-20T17:33:12.606Z,36
2016-08-20T17:34:12.615Z,40
2016-08-20T17:35:13.284Z,40
2016-08-20T17:36:12.592Z,40
2016-08-20T17:37:12.615Z,44
2016-08-20T17:38:12.649Z,48
2016-08-20T17:39:12.679Z,52
2016-08-20T17:40:12.713Z,44
2016-08-20T17:41:12.739Z,36
2016-08-20T17:42:12.770Z,36
2016-08-20T17:43:12.801Z,44
2016-08-20T17:44:12.877Z,48
2016-08-20T17:45:12.861Z,52
2016-08-20T17:46:13.593Z,56
2016-08-20T17:47:12.919Z,60
2016-08-20T17:48:12.947Z,60
2016-08-20T17:49:12.976Z,60
2016-08-20T17:50:13.725Z,56
2016-08-20T17:51:13.042Z,48
2016-08-20T17:52:13.067Z,36
2016-08-20T17:53:13.098Z,36
2016-08-20T17:54:13.838Z,36
2016-08-20T17:55:13.857Z,32
2016-08-20T17:56:13.190Z,36
2016-08-20T17:57:13.209Z,40
2016-08-20T17:58:13.245Z,32
2016-08-20T17:59:13.270Z,24
2016-08-20T18:00:13.301Z,28
2016-08-20T18:01:13.323Z,24
2016-08-20T18:02:13.365Z,28
2016-08-20T18:03:13.393Z,28
2016-08-20T18:04:13.420Z,24
2016-08-20T18:05:13.459Z,24
2016-08-20T18:06:13.474Z,20
2016-08-20T18:07:13.507Z,20
2016-08-20T18:08:13.530Z,16
2016-08-20T18:09:13.566Z,16
2016-08-20T18:10:13.596Z,16
2016-08-20T18:11:13.617Z,12
2016-08-20T18:12:13.651Z,12
2016-08-20T18:13:13.698Z,8
2016-08-20T18:14:13.707Z,8
2016-08-20T18:15:13.732Z,12
2016-08-20T18:16:13.820Z,12
2016-08-20T18:17:13.801Z,12
2016-08-20T18:18:13.828Z,8
2016-08-20T18:19:13.857Z,8
2016-08-20T18:20:13.909Z,8
2016-08-20T18:21:13.913Z,12
2016-08-20T18:22:14.000Z,8
2016-08-20T18:23:13.975Z,8
2016-08-20T18:24:14.013Z,8
2016-08-20T18:25:14.026Z,8
2016-08-20T18:26:14.061Z,4
2016-08-20T18:27:14.108Z,4
2016-08-20T18:28:14.121Z,0
2016-08-20T18:29:14.154Z,0
2016-08-20T18:30:14.180Z,0
2016-08-20T18:31:14.207Z,4
2016-08-20T18:32:14.233Z,4
2016-08-20T18:33:14.258Z,0
2016-08-20T18:34:14.292Z,0
2016-08-20T18:35:15.026Z,0
2016-08-20T18:36:14.352Z,0
2016-08-20T18:37:14.377Z,0
2016-08-20T18:38:14.405Z,0
2016-08-20T18:39:14.439Z,0
2016-08-20T18:40:14.465Z,0
2016-08-20T18:41:14.549Z,0
2016-08-20T18:42:15.233Z,0
2016-08-20T18:43:14.545Z,0
2016-08-20T18:44:15.297Z,0
2016-08-20T18:45:14.606Z,0
2016-08-20T18:46:14.638Z,0
2016-08-20T18:47:15.371Z,0
2016-08-20T18:48:14.696Z,0
2016-08-20T18:49:14.719Z,0
2016-08-20T18:50:14.751Z,0
2016-08-20T18:51:14.780Z,0
2016-08-20T18:52:14.814Z,0
2016-08-20T18:53:15.546Z,0
2016-08-20T18:54:15.578Z,0
2016-08-20T18:55:14.910Z,0
2016-08-20T18:56:14.924Z,0
2016-08-20T18:57:15.790Z,0
2016-08-20T18:58:14.978Z,0
2016-08-20T18:59:15.009Z,0
2016-08-20T19:00:15.046Z,0
2016-08-20T19:01:15.773Z,0
2016-08-20T19:02:15.099Z,0
2016-08-20T19:03:15.129Z,0
2016-08-20T19:04:15.148Z,0
2016-08-20T19:05:15.174Z,0
2016-08-20T19:06:15.215Z,0
2016-08-20T19:07:15.236Z,0
2016-08-20T19:08:15.275Z,0
2016-08-20T19:09:15.298Z,0
2016-08-20T19:10:16.109Z,0
2016-08-20T19:11:15.349Z,0
2016-08-20T19:12:15.377Z,0
2016-08-20T19:13:15.408Z,0
2016-08-20T19:14:15.440Z,0
2016-08-20T19:15:15.474Z,0
2016-08-20T19:16:15.492Z,0
2016-08-20T19:17:15.538Z,0
2016-08-20T19:18:15.558Z,0
2016-08-20T19:19:16.294Z,0
2016-08-20T19:20:15.604Z,0
2016-08-20T19:21:15.637Z,0
2016-08-20T19:22:15.785Z,0
2016-08-20T19:23:15.796Z,0
2016-08-20T19:24:15.827Z,0
2016-08-20T19:25:15.837Z,0
2016-08-20T19:26:15.836Z,0
2016-08-20T19:27:15.904Z,0
2016-08-20T19:28:15.916Z,0
2016-08-20T19:29:15.921Z,0
2016-08-20T19:30:15.920Z,0
2016-08-20T19:31:15.930Z,0
2016-08-20T19:32:16.058Z,0
2016-08-20T19:33:16.066Z,0
2016-08-20T19:34:16.104Z,0
2016-08-20T19:35:16.096Z,0
2016-08-20T19:36:16.105Z,0
2016-08-20T19:37:16.795Z,0
2016-08-20T19:38:16.122Z,0
2016-08-20T19:39:16.154Z,0
2016-08-20T19:40:16.170Z,0
2016-08-20T19:41:16.251Z,0
2016-08-20T19:42:16.237Z,0
2016-08-20T19:43:16.259Z,0
2016-08-20T19:44:16.289Z,0
2016-08-20T19:45:16.319Z,0
2016-08-20T19:46:16.341Z,0
2016-08-20T19:47:16.369Z,0
2016-08-20T19:48:16.402Z,0
2016-08-20T19:49:16.426Z,0
2016-08-20T19:50:17.168Z,0
2016-08-20T19:51:16.482Z,0
2016-08-20T19:52:16.514Z,0
2016-08-20T19:53:16.540Z,0
2016-08-20T19:54:17.279Z,0
2016-08-20T19:55:16.593Z,0
2016-08-20T19:56:16.631Z,0
2016-08-20T19:57:16.656Z,0
2016-08-20T19:58:16.679Z,0
2016-08-20T19:59:16.718Z,0
2016-08-20T20:00:16.735Z,0
2016-08-20T20:01:16.766Z,0
2016-08-20T20:02:16.811Z,0
2016-08-20T20:03:16.817Z,0
2016-08-20T20:04:16.851Z,0
2016-08-20T20:05:16.882Z,0
2016-08-20T20:06:18.317Z,0
2016-08-20T20:07:16.933Z,0
2016-08-20T20:08:16.967Z,0
2016-08-20T20:09:16.988Z,0
2016-08-20T20:10:17.019Z,0
2016-08-20T20:11:17.844Z,0
2016-08-20T20:12:17.072Z,0
2016-08-20T20:13:17.098Z,0
2016-08-20T20:14:17.132Z,0
2016-08-20T20:15:17.151Z,0
2016-08-20T20:16:17.187Z,0
2016-08-20T20:17:17.231Z,0
2016-08-20T20:18:17.232Z,0
2016-08-20T20:19:17.276Z,0
2016-08-20T20:20:17.296Z,0
2016-08-20T20:21:17.328Z,0
2016-08-20T20:22:17.347Z,0
2016-08-20T20:23:17.388Z,0
2016-08-20T20:24:18.165Z,0
2016-08-20T20:25:17.431Z,0
2016-08-20T20:26:17.461Z,0
2016-08-20T20:27:17.488Z,0
2016-08-20T20:28:18.227Z,0
2016-08-20T20:29:17.549Z,0
2016-08-20T20:30:17.585Z,0
2016-08-20T20:31:17.607Z,0
2016-08-20T20:32:17.742Z,0
2016-08-20T20:33:17.756Z,0
2016-08-20T20:34:17.917Z,0
2016-08-20T20:35:17.925Z,0
2016-08-20T20:36:17.940Z,0
2016-08-20T20:37:17.950Z,0
2016-08-20T20:38:17.958Z,0
2016-08-20T20:39:17.957Z,0
2016-08-20T20:40:17.965Z,0
2016-08-20T20:41:17.974Z,0
2016-08-20T20:42:18.112Z,0
2016-08-20T20:43:18.022Z,0
2016-08-20T20:44:18.031Z,0
2016-08-20T20:45:18.077Z,0
2016-08-20T20:46:18.110Z,0
2016-08-20T20:47:18.115Z,0
2016-08-20T20:48:18.128Z,0
2016-08-20T20:49:18.126Z,0
2016-08-20T20:50:18.137Z,0
2016-08-20T20:51:18.156Z,0
2016-08-20T20:52:18.191Z,0
2016-08-20T20:53:18.274Z,0
2016-08-20T20:54:18.250Z,0
2016-08-20T20:55:18.268Z,0
2016-08-20T20:56:18.294Z,0
2016-08-20T20:57:18.330Z,0
2016-08-20T20:58:18.358Z,0
2016-08-20T20:59:18.379Z,0
2016-08-20T21:00:18.406Z,0
2016-08-20T21:01:18.431Z,0
2016-08-20T21:02:18.461Z,0
2016-08-20T21:03:18.490Z,0
2016-08-20T21:04:19.225Z,0
2016-08-20T21:05:19.269Z,0
2016-08-20T21:06:18.571Z,0
2016-08-20T21:07:18.606Z,0
2016-08-20T21:08:18.670Z,0
2016-08-20T21:09:18.648Z,0
2016-08-20T21:10:18.681Z,0
2016-08-20T21:11:18.705Z,0
2016-08-20T21:12:18.734Z,0
2016-08-20T21:13:18.770Z,0
2016-08-20T21:14:18.794Z,0
2016-08-20T21:15:18.819Z,0
2016-08-20T21:16:18.866Z,0
2016-08-20T21:17:18.888Z,0
2016-08-20T21:18:18.896Z,0
2016-08-20T21:19:18.928Z,0
2016-08-20T21:20:18.970Z,0
2016-08-20T21:21:19.685Z,0
2016-08-20T21:22:19.009Z,0
2016-08-20T21:23:19.039Z,0
2016-08-20T21:24:19.063Z,0
2016-08-20T21:25:19.908Z,0
2016-08-20T21:26:19.113Z,0
2016-08-20T21:27:19.144Z,0
2016-08-20T21:28:19.167Z,0
2016-08-20T21:29:19.198Z,0
2016-08-20T21:30:19.222Z,0
2016-08-20T21:31:19.254Z,0
2016-08-20T21:32:19.281Z,0
2016-08-20T21:33:20.147Z,0
2016-08-20T21:34:19.336Z,0
2016-08-20T21:35:19.383Z,0
2016-08-20T21:36:19.387Z,0
2016-08-20T21:37:19.426Z,0
2016-08-20T21:38:19.442Z,0
2016-08-20T21:39:19.472Z,0
2016-08-20T21:40:19.495Z,0
2016-08-20T21:41:19.523Z,0
2016-08-20T21:42:20.276Z,0
2016-08-20T21:43:19.580Z,0
2016-08-20T21:44:19.613Z,0
2016-08-20T21:45:19.648Z,0
2016-08-20T21:46:19.663Z,0
2016-08-20T21:47:20.404Z,0
2016-08-20T21:48:19.806Z,0
2016-08-20T21:49:19.836Z,0
2016-08-20T21:50:19.863Z,0
2016-08-20T21:51:20.016Z,0
2016-08-20T21:52:20.031Z,0
2016-08-20T21:53:20.042Z,0
2016-08-20T21:54:20.096Z,0
2016-08-20T21:55:20.084Z,0
2016-08-20T21:56:20.104Z,0
2016-08-20T21:57:20.104Z,0
2016-08-20T21:58:20.827Z,0
2016-08-20T21:59:20.126Z,0
2016-08-20T22:00:20.128Z,0
2016-08-20T22:01:20.166Z,0
2016-08-20T22:02:20.197Z,0
2016-08-20T22:03:20.205Z,0
2016-08-20T22:04:20.216Z,0
2016-08-20T22:05:20.919Z,0
2016-08-20T22:06:20.225Z,0
2016-08-20T22:07:20.229Z,0
2016-08-20T22:08:20.254Z,0
2016-08-20T22:09:20.301Z,0
2016-08-20T22:10:20.502Z,0
2016-08-20T22:11:20.335Z,0
2016-08-20T22:12:20.357Z,0
2016-08-20T22:13:20.393Z,0
2016-08-20T22:14:20.418Z,0
2016-08-20T22:15:20.446Z,0
2016-08-20T22:16:20.465Z,0
2016-08-20T22:17:20.500Z,0
2016-08-20T22:18:20.526Z,0
2016-08-20T22:19:20.548Z,0
2016-08-20T22:20:20.579Z,0
2016-08-20T22:21:20.602Z,0
2016-08-20T22:22:20.625Z,0
2016-08-20T22:23:20.665Z,0
2016-08-20T22:24:20.686Z,0
2016-08-20T22:25:20.714Z,0
2016-08-20T22:26:20.736Z,0
2016-08-20T22:27:21.474Z,0
2016-08-20T22:28:20.805Z,0
2016-08-20T22:29:21.518Z,0
2016-08-20T22:30:20.842Z,0
2016-08-20T22:31:20.887Z,0
2016-08-20T22:32:20.906Z,0
2016-08-20T22:33:20.922Z,0
2016-08-20T22:34:20.955Z,0
2016-08-20T22:35:20.972Z,0
2016-08-20T22:36:21.004Z,0
2016-08-20T22:37:21.034Z,0
2016-08-20T22:38:21.060Z,0
2016-08-20T22:39:21.086Z,0
2016-08-20T22:40:21.115Z,0
2016-08-20T22:41:21.139Z,0
2016-08-20T22:42:21.962Z,0
2016-08-20T22:43:21.970Z,0
2016-08-20T22:44:21.218Z,0
2016-08-20T22:45:21.287Z,0
2016-08-20T22:46:21.316Z,0
2016-08-20T22:47:21.299Z,0
2016-08-20T22:48:21.323Z,0
2016-08-20T22:49:21.351Z,0
2016-08-20T22:50:21.385Z,0
2016-08-20T22:51:21.416Z,0
2016-08-20T22:52:21.432Z,0
2016-08-20T22:53:21.451Z,0
2016-08-20T22:54:21.479Z,0
2016-08-20T22:55:21.513Z,0
2016-08-20T22:56:21.529Z,0
2016-08-20T22:57:21.608Z,0
2016-08-20T22:58:22.294Z,0
2016-08-20T22:59:21.890Z,0
2016-08-20T23:00:21.653Z,0
2016-08-20T23:01:22.373Z,0
2016-08-20T23:02:21.689Z,0
2016-08-20T23:03:22.427Z,0
2016-08-20T23:04:21.860Z,0
2016-08-20T23:05:21.860Z,0
2016-08-20T23:06:21.888Z,0
2016-08-20T23:07:22.069Z,0
2016-08-20T23:08:22.791Z,0
2016-08-20T23:09:22.092Z,0
2016-08-20T23:10:22.098Z,0
2016-08-20T23:11:22.846Z,0
2016-08-20T23:12:22.150Z,0
2016-08-20T23:13:22.159Z,0
2016-08-20T23:14:22.161Z,0
2016-08-20T23:15:22.166Z,0
2016-08-20T23:16:22.181Z,0
2016-08-20T23:17:22.187Z,0
2016-08-20T23:18:22.202Z,0
2016-08-20T23:19:22.232Z,0
2016-08-20T23:20:22.242Z,0
2016-08-20T23:21:22.277Z,0
2016-08-20T23:22:22.277Z,0
2016-08-20T23:23:22.271Z,0
2016-08-20T23:24:23.687Z,0
2016-08-20T23:25:22.294Z,0
2016-08-20T23:26:22.326Z,0
2016-08-20T23:27:23.058Z,0
2016-08-20T23:28:22.373Z,0
2016-08-20T23:29:22.407Z,0
2016-08-20T23:30:22.425Z,0
2016-08-20T23:31:22.451Z,0
2016-08-20T23:32:22.476Z,0
2016-08-20T23:33:22.511Z,0
2016-08-20T23:34:22.541Z,0
2016-08-20T23:35:22.559Z,0
2016-08-20T23:36:22.587Z,0
2016-08-20T23:37:22.608Z,0
2016-08-20T23:38:22.655Z,0
2016-08-20T23:39:22.664Z,0
2016-08-20T23:40:22.695Z,0
2016-08-20T23:41:22.713Z,0
2016-08-20T23:42:22.744Z,0
2016-08-20T23:43:22.769Z,0
2016-08-20T23:44:22.790Z,0
2016-08-20T23:45:22.822Z,0
2016-08-20T23:46:22.842Z,0
2016-08-20T23:47:22.878Z,0
2016-08-20T23:48:22.906Z,0
2016-08-20T23:49:22.926Z,0
2016-08-20T23:50:22.981Z,0
2016-08-20T23:51:22.974Z,0
2016-08-20T23:52:23.005Z,0
2016-08-20T23:53:23.728Z,0
2016-08-20T23:54:23.061Z,0
2016-08-20T23:55:23.080Z,0
2016-08-20T23:56:23.110Z,0
2016-08-20T23:57:23.127Z,0
2016-08-20T23:58:23.213Z,0
2016-08-20T23:59:23.178Z,0
